Time;durP1;ratioP1;P1;durP2;ratioP2;P2;SDS_P1;SDS_P2;PMS_P1;PMS_P2;Temp;Humidity;BMP_temperature;BMP_pressure;BME280_temperature;BME280_humidity;BME280_pressure;Samples;Min_cycle;Max_cycle;Signal;HPM_P1;HPM_P2
2021/06/14 00:01:03;;;;;;;5.40;3.50;;;12.40;99.90;;;;;;5121149;27;20200;-47
2021/06/14 00:03:30;;;;;;;6.97;4.00;;;12.30;99.90;;;;;;5123488;27;20235;-47
2021/06/14 00:05:56;;;;;;;5.43;3.73;;;12.30;99.90;;;;;;5119669;27;20187;-46
2021/06/14 00:08:25;;;;;;;3.93;3.53;;;12.20;99.90;;;;;;5108230;27;20201;-47
2021/06/14 00:10:54;;;;;;;4.07;3.07;;;12.20;99.90;;;;;;5119965;27;20216;-47
2021/06/14 00:13:21;;;;;;;4.03;3.17;;;12.20;99.90;;;;;;5109882;27;20201;-49
2021/06/14 00:15:48;;;;;;;6.00;3.57;;;12.30;99.90;;;;;;5100906;28;20185;-45
2021/06/14 00:18:18;;;;;;;6.47;4.10;;;12.20;99.90;;;;;;5100755;28;20204;-44
2021/06/14 00:20:50;;;;;;;8.93;4.37;;;12.10;99.90;;;;;;5099484;28;20197;-44
2021/06/14 00:23:17;;;;;;;4.83;3.43;;;12.10;99.90;;;;;;5101341;28;20209;-46
2021/06/14 00:25:44;;;;;;;6.73;3.50;;;12.10;99.90;;;;;;5119999;28;20180;-45
2021/06/14 00:28:10;;;;;;;9.57;3.70;;;12.10;99.90;;;;;;5124346;27;20708;-45
2021/06/14 00:30:41;;;;;;;5.73;3.67;;;12.10;99.90;;;;;;5118528;28;20693;-49
2021/06/14 00:33:08;;;;;;;5.73;3.53;;;12.00;99.90;;;;;;5124341;28;20567;-45
2021/06/14 00:35:36;;;;;;;5.20;3.37;;;12.00;99.90;;;;;;5098761;27;20223;-50
2021/06/14 00:38:03;;;;;;;5.87;3.37;;;11.90;99.90;;;;;;5103905;28;20201;-46
2021/06/14 00:40:31;;;;;;;4.47;3.97;;;11.90;99.90;;;;;;5103085;28;20228;-51
2021/06/14 00:42:58;;;;;;;5.57;3.40;;;11.80;99.90;;;;;;5121678;28;20196;-45
2021/06/14 00:45:29;;;;;;;4.67;3.23;;;11.80;99.90;;;;;;5122692;28;20195;-48
2021/06/14 00:47:56;;;;;;;4.80;3.60;;;11.70;99.90;;;;;;5121389;28;20197;-47
2021/06/14 00:50:34;;;;;;;5.13;3.67;;;11.70;99.90;;;;;;5115667;28;20235;-50
2021/06/14 00:53:05;;;;;;;3.30;3.00;;;11.70;99.90;;;;;;5122224;28;20283;-45
2021/06/14 00:55:32;;;;;;;3.70;3.40;;;11.70;99.90;;;;;;5105932;28;20565;-48
2021/06/14 00:57:59;;;;;;;4.10;3.33;;;11.80;99.90;;;;;;5121955;28;20280;-44
2021/06/14 01:00:26;;;;;;;4.63;3.60;;;11.70;99.90;;;;;;5121754;27;20204;-47
2021/06/14 01:02:58;;;;;;;4.27;3.87;;;11.70;99.90;;;;;;5122922;27;20215;-44
2021/06/14 01:05:27;;;;;;;3.50;3.20;;;11.70;99.90;;;;;;5122714;27;20196;-47
2021/06/14 01:07:54;;;;;;;6.33;3.47;;;11.70;99.90;;;;;;5118047;28;20199;-46
2021/06/14 01:10:22;;;;;;;5.20;3.30;;;11.60;99.90;;;;;;5105128;28;20216;-49
2021/06/14 01:13:06;;;;;;;5.47;3.50;;;11.60;99.90;;;;;;5119499;28;20192;-44
2021/06/14 01:15:42;;;;;;;6.33;3.60;;;11.50;99.90;;;;;;5120961;27;20203;-47
2021/06/14 01:18:12;;;;;;;4.00;3.33;;;11.50;99.90;;;;;;5126372;27;20279;-47
2021/06/14 01:20:52;;;;;;;4.73;3.50;;;11.40;99.90;;;;;;5121264;27;20971;-44
2021/06/14 01:23:47;;;;;;;7.47;3.70;;;11.40;99.90;;;;;;5125311;27;20604;-48
2021/06/14 01:26:19;;;;;;;5.33;3.40;;;11.40;99.90;;;;;;5112803;27;20199;-45
2021/06/14 01:28:51;;;;;;;6.50;3.50;;;11.30;99.90;;;;;;5123166;27;20216;-43
2021/06/14 01:31:24;;;;;;;9.20;3.87;;;11.30;99.90;;;;;;5126446;27;20603;-44
2021/06/14 01:33:53;;;;;;;6.23;3.77;;;11.30;99.90;;;;;;5123865;27;20989;-43
2021/06/14 01:36:25;;;;;;;4.70;3.73;;;11.20;99.90;;;;;;5127027;27;20771;-43
2021/06/14 01:38:55;;;;;;;5.73;4.70;;;11.20;99.90;;;;;;5123982;27;20332;-43
2021/06/14 01:41:25;;;;;;;6.07;4.00;;;11.20;99.90;;;;;;5108639;27;20224;-45
2021/06/14 01:44:02;;;;;;;5.87;4.00;;;11.10;99.90;;;;;;5123022;27;20196;-47
2021/06/14 01:46:33;;;;;;;4.60;3.80;;;11.10;99.90;;;;;;5123917;27;20486;-44
2021/06/14 01:49:04;;;;;;;5.47;3.83;;;11.10;99.90;;;;;;5123302;27;20208;-47
2021/06/14 01:51:35;;;;;;;4.57;3.83;;;11.10;99.90;;;;;;5124512;27;20925;-44
2021/06/14 01:54:06;;;;;;;5.03;3.70;;;11.10;99.90;;;;;;5120319;27;20195;-43
2021/06/14 01:56:49;;;;;;;4.43;3.83;;;11.10;99.90;;;;;;5110630;27;20219;-43
2021/06/14 01:59:20;;;;;;;5.43;3.37;;;11.10;99.90;;;;;;5120804;27;20268;-45
2021/06/14 02:01:53;;;;;;;5.77;4.03;;;11.00;99.90;;;;;;5126975;27;20217;-43
2021/06/14 02:04:20;;;;;;;5.97;4.17;;;11.00;99.90;;;;;;5121883;27;20201;-43
2021/06/14 02:06:54;;;;;;;5.77;4.20;;;11.00;99.90;;;;;;5126847;27;20625;-44
2021/06/14 02:09:25;;;;;;;5.73;3.87;;;10.90;99.90;;;;;;5122633;27;20304;-44
2021/06/14 02:11:55;;;;;;;6.50;4.00;;;10.90;99.90;;;;;;5125364;27;20580;-44
2021/06/14 02:14:26;;;;;;;4.07;3.67;;;10.80;99.90;;;;;;5109646;27;20226;-46
2021/06/14 02:16:55;;;;;;;4.53;3.70;;;10.90;99.90;;;;;;5125205;27;20197;-46
2021/06/14 02:19:23;;;;;;;4.83;4.17;;;10.80;99.90;;;;;;5122527;27;20177;-45
2021/06/14 02:21:51;;;;;;;5.50;3.83;;;10.90;99.90;;;;;;5121624;27;20294;-45
2021/06/14 02:24:18;;;;;;;5.57;3.80;;;10.90;99.90;;;;;;5118569;27;20951;-46
2021/06/14 02:26:47;;;;;;;5.63;3.60;;;11.00;99.90;;;;;;5125020;27;20204;-48
2021/06/14 02:29:14;;;;;;;5.00;3.77;;;11.00;99.90;;;;;;5099269;27;20213;-48
2021/06/14 02:31:44;;;;;;;6.97;3.67;;;11.00;99.90;;;;;;5124635;27;20225;-45
2021/06/14 02:34:14;;;;;;;7.00;3.80;;;11.00;99.90;;;;;;5121911;27;20271;-48
2021/06/14 02:36:43;;;;;;;5.13;3.60;;;11.00;99.90;;;;;;5124863;27;20193;-46
2021/06/14 02:39:15;;;;;;;6.00;3.50;;;11.00;99.90;;;;;;5120051;27;20211;-51
2021/06/14 02:41:44;;;;;;;3.83;3.53;;;11.00;99.90;;;;;;5124581;27;20232;-47
2021/06/14 02:44:12;;;;;;;7.20;4.13;;;11.00;99.90;;;;;;5107794;27;20200;-50
2021/06/14 02:46:47;;;;;;;5.73;3.90;;;11.00;99.90;;;;;;5119326;27;20189;-44
2021/06/14 02:49:16;;;;;;;7.77;4.13;;;11.00;99.90;;;;;;5121218;27;20243;-50
2021/06/14 02:51:44;;;;;;;6.00;4.40;;;11.00;99.90;;;;;;5123681;27;20643;-45
2021/06/14 02:54:21;;;;;;;7.13;4.50;;;11.00;99.90;;;;;;5118744;27;20193;-51
2021/06/14 02:56:50;;;;;;;4.43;3.60;;;10.90;99.90;;;;;;5126020;27;20189;-45
2021/06/14 02:59:18;;;;;;;7.23;4.40;;;10.90;99.90;;;;;;5120688;27;20952;-47
2021/06/14 03:01:49;;;;;;;6.77;4.13;;;10.90;99.90;;;;;;5111028;27;20307;-44
2021/06/14 03:04:18;;;;;;;5.33;4.70;;;10.90;99.90;;;;;;5120184;27;20204;-46
2021/06/14 03:06:46;;;;;;;4.50;4.10;;;10.90;99.90;;;;;;5125999;27;20196;-46
2021/06/14 03:09:13;;;;;;;5.07;4.40;;;10.90;99.90;;;;;;5120400;27;20670;-49
2021/06/14 03:11:42;;;;;;;4.60;3.93;;;10.90;99.90;;;;;;5125385;27;20708;-46
2021/06/14 03:14:16;;;;;;;5.73;4.07;;;10.80;99.90;;;;;;5120141;27;20629;-54
2021/06/14 03:16:46;;;;;;;6.13;4.23;;;10.80;99.90;;;;;;5111192;27;20208;-44
2021/06/14 03:19:16;;;;;;;7.47;4.10;;;10.70;99.90;;;;;;5119438;27;20200;-49
2021/06/14 03:21:45;;;;;;;5.30;4.20;;;10.80;99.90;;;;;;5123105;27;20218;-48
2021/06/14 03:24:15;;;;;;;5.23;4.73;;;10.70;99.90;;;;;;5116323;27;20964;-45
2021/06/14 03:26:44;;;;;;;5.00;4.13;;;10.70;99.90;;;;;;5125176;27;20279;-49
2021/06/14 03:29:16;;;;;;;6.53;4.23;;;10.70;99.90;;;;;;5118272;27;20215;-50
2021/06/14 03:31:45;;;;;;;5.30;4.23;;;10.70;99.90;;;;;;5102148;27;20235;-48
2021/06/14 03:34:14;;;;;;;6.17;3.80;;;10.70;99.90;;;;;;5121914;27;20212;-47
2021/06/14 03:36:41;;;;;;;6.83;4.23;;;10.70;99.90;;;;;;5100818;27;20686;-49
2021/06/14 03:39:09;;;;;;;5.73;4.13;;;10.70;99.90;;;;;;5122136;27;20846;-46
2021/06/14 03:41:41;;;;;;;5.17;3.77;;;10.70;99.90;;;;;;5122958;27;20208;-51
2021/06/14 03:44:08;;;;;;;4.80;4.23;;;10.70;99.90;;;;;;5122910;27;20184;-47
2021/06/14 03:46:34;;;;;;;4.83;4.00;;;10.70;99.90;;;;;;5109437;27;20223;-44
2021/06/14 03:49:01;;;;;;;5.20;4.40;;;10.70;99.90;;;;;;5114783;27;20200;-47
2021/06/14 03:51:29;;;;;;;6.50;4.13;;;10.70;99.90;;;;;;5109946;27;20235;-46
2021/06/14 03:53:59;;;;;;;4.90;3.83;;;10.70;99.90;;;;;;5121896;27;20196;-44
2021/06/14 03:56:27;;;;;;;5.60;4.13;;;10.70;99.90;;;;;;5130931;27;20183;-50
2021/06/14 03:58:54;;;;;;;6.10;4.30;;;10.80;99.90;;;;;;5114857;27;20569;-49
2021/06/14 04:01:22;;;;;;;4.83;3.97;;;10.90;99.90;;;;;;5124336;27;20214;-48
2021/06/14 04:03:58;;;;;;;4.40;4.00;;;10.90;99.90;;;;;;5106528;27;20206;-46
2021/06/14 04:06:25;;;;;;;6.07;4.17;;;10.90;99.90;;;;;;5113027;27;20193;-45
2021/06/14 04:08:53;;;;;;;5.50;4.43;;;11.00;99.90;;;;;;5095097;27;20198;-48
2021/06/14 04:11:20;;;;;;;9.10;4.47;;;11.00;99.90;;;;;;5097796;27;20224;-47
2021/06/14 04:13:48;;;;;;;6.67;4.03;;;11.10;99.90;;;;;;5111375;27;20682;-45
2021/06/14 04:16:15;;;;;;;4.53;3.60;;;11.20;99.90;;;;;;5108832;27;20604;-45
2021/06/14 04:18:42;;;;;;;5.17;4.07;;;11.20;99.90;;;;;;5107130;27;20195;-49
2021/06/14 04:21:08;;;;;;;5.43;4.17;;;11.30;99.90;;;;;;5119647;27;20205;-46
2021/06/14 04:23:36;;;;;;;3.80;3.27;;;11.30;99.90;;;;;;5132767;27;20196;-48
2021/06/14 04:26:04;;;;;;;7.20;4.17;;;11.30;99.90;;;;;;5114273;27;20843;-59
2021/06/14 04:28:31;;;;;;;4.20;3.80;;;11.40;99.90;;;;;;5136548;27;20194;-60
2021/06/14 04:30:58;;;;;;;6.93;4.60;;;11.50;99.90;;;;;;5130353;27;20299;-60
2021/06/14 04:33:24;;;;;;;5.07;3.87;;;11.50;99.90;;;;;;5115140;28;20197;-59
2021/06/14 04:35:51;;;;;;;5.97;4.03;;;11.60;99.90;;;;;;5115120;27;20211;-53
2021/06/14 04:38:18;;;;;;;6.30;3.97;;;11.60;99.90;;;;;;5124309;27;20673;-59
2021/06/14 04:40:44;;;;;;;5.13;3.90;;;11.70;99.90;;;;;;5105716;28;20212;-56
2021/06/14 04:43:12;;;;;;;5.83;4.23;;;11.80;99.90;;;;;;5122417;27;20188;-59
2021/06/14 04:45:39;;;;;;;7.27;4.43;;;11.80;99.90;;;;;;5123303;27;20197;-57
2021/06/14 04:48:06;;;;;;;4.73;3.83;;;11.90;99.90;;;;;;5120360;27;20201;-45
2021/06/14 04:50:33;;;;;;;8.67;4.10;;;11.90;99.90;;;;;;5112896;27;20307;-48
2021/06/14 04:52:59;;;;;;;9.50;4.40;;;12.00;99.90;;;;;;5122037;27;20188;-45
2021/06/14 04:55:26;;;;;;;5.07;4.60;;;12.10;99.90;;;;;;5122145;27;20215;-45
2021/06/14 04:57:53;;;;;;;6.87;4.30;;;12.10;99.90;;;;;;5101874;27;20205;-49
2021/06/14 05:00:22;;;;;;;6.40;5.00;;;12.20;99.90;;;;;;5106781;28;20217;-46
2021/06/14 05:02:49;;;;;;;7.63;5.00;;;12.30;99.90;;;;;;5109822;27;20692;-49
2021/06/14 05:05:16;;;;;;;7.13;4.90;;;12.50;99.90;;;;;;5125700;27;20235;-45
2021/06/14 05:07:43;;;;;;;8.10;6.07;;;12.60;99.90;;;;;;5110999;27;20208;-45
2021/06/14 05:10:11;;;;;;;8.13;5.40;;;12.60;99.90;;;;;;5117000;27;20235;-46
2021/06/14 05:12:37;;;;;;;8.20;5.67;;;12.80;99.90;;;;;;5102994;27;20209;-46
2021/06/14 05:15:06;;;;;;;9.80;5.77;;;13.00;99.90;;;;;;5104219;28;20253;-47
2021/06/14 05:17:34;;;;;;;7.07;5.00;;;13.10;99.90;;;;;;5124191;27;20193;-45
2021/06/14 05:20:00;;;;;;;7.73;5.27;;;13.20;99.90;;;;;;5117924;27;20223;-44
2021/06/14 05:22:27;;;;;;;7.53;5.20;;;13.30;99.90;;;;;;5112671;27;20725;-47
2021/06/14 05:24:53;;;;;;;6.83;4.67;;;13.40;99.90;;;;;;5123169;27;20196;-45
2021/06/14 05:27:20;;;;;;;11.47;5.40;;;13.60;99.90;;;;;;5117095;27;20571;-48
2021/06/14 05:29:47;;;;;;;7.13;5.13;;;13.60;99.90;;;;;;5120645;27;20686;-45
2021/06/14 05:32:13;;;;;;;9.67;5.70;;;13.80;99.90;;;;;;5117179;27;20208;-47
2021/06/14 05:34:41;;;;;;;4.27;3.87;;;13.90;99.90;;;;;;5114106;27;20250;-49
2021/06/14 05:37:08;;;;;;;5.73;4.13;;;14.10;99.90;;;;;;5105185;27;20193;-44
2021/06/14 05:39:35;;;;;;;6.53;3.63;;;14.20;99.90;;;;;;5116119;27;20851;-44
2021/06/14 05:42:02;;;;;;;11.77;4.07;;;14.30;99.90;;;;;;5129049;27;20228;-44
2021/06/14 05:44:28;;;;;;;7.27;3.90;;;14.40;99.90;;;;;;5129288;27;20196;-45
2021/06/14 05:46:55;;;;;;;9.13;3.77;;;14.50;99.90;;;;;;5139001;27;20192;-47
2021/06/14 05:49:22;;;;;;;9.00;4.83;;;14.60;99.90;;;;;;5140469;27;20196;-45
2021/06/14 05:51:50;;;;;;;8.97;3.80;;;14.90;99.90;;;;;;5101145;27;20217;-44
2021/06/14 05:54:17;;;;;;;4.40;4.00;;;14.90;99.90;;;;;;5124942;27;20197;-48
2021/06/14 05:56:44;;;;;;;10.20;4.27;;;15.00;99.90;;;;;;5121397;27;20887;-45
2021/06/14 05:59:10;;;;;;;7.33;4.13;;;15.10;99.90;;;;;;5108072;27;20204;-47
2021/06/14 06:01:37;;;;;;;9.30;4.03;;;15.20;99.90;;;;;;5120111;27;20215;-45
2021/06/14 06:04:04;;;;;;;5.37;4.00;;;15.30;99.90;;;;;;5123916;27;20196;-44
2021/06/14 06:06:31;;;;;;;8.13;4.73;;;15.40;99.90;;;;;;5099311;27;20196;-49
2021/06/14 06:08:59;;;;;;;8.63;4.07;;;15.50;99.90;;;;;;5133773;27;20200;-47
2021/06/14 06:11:26;;;;;;;9.63;4.43;;;15.60;99.90;;;;;;5127608;27;20706;-47
2021/06/14 06:13:52;;;;;;;12.20;5.27;;;15.70;99.90;;;;;;5120224;27;20209;-46
2021/06/14 06:16:19;;;;;;;5.97;3.63;;;15.80;99.90;;;;;;5119161;27;20205;-47
2021/06/14 06:18:46;;;;;;;7.13;3.70;;;15.90;99.90;;;;;;5105789;27;20201;-46
2021/06/14 06:21:13;;;;;;;6.17;3.40;;;16.00;99.90;;;;;;5095461;27;20944;-45
2021/06/14 06:23:39;;;;;;;5.43;3.87;;;16.10;99.90;;;;;;5103120;27;20634;-44
2021/06/14 06:26:08;;;;;;;4.50;3.90;;;16.20;99.90;;;;;;5116660;27;20659;-45
2021/06/14 06:28:34;;;;;;;6.43;3.30;;;16.40;99.90;;;;;;5105039;27;20197;-46
2021/06/14 06:31:01;;;;;;;4.60;3.13;;;16.60;99.90;;;;;;5102275;27;20710;-44
2021/06/14 06:33:28;;;;;;;7.17;3.33;;;16.60;99.90;;;;;;5108133;27;20932;-47
2021/06/14 06:35:54;;;;;;;5.20;2.80;;;16.70;99.90;;;;;;5107599;27;20209;-46
2021/06/14 06:38:21;;;;;;;6.27;3.00;;;;;;;;;;5089867;27;20205;-44
2021/06/14 06:40:48;;;;;;;2.53;2.10;;;16.90;99.90;;;;;;5106625;27;20227;-45
2021/06/14 06:43:16;;;;;;;4.60;2.20;;;17.00;99.90;;;;;;5109749;27;20193;-44
2021/06/14 06:45:44;;;;;;;6.73;3.03;;;17.10;99.90;;;;;;5106299;27;20201;-44
2021/06/14 06:48:11;;;;;;;7.23;3.30;;;17.20;99.90;;;;;;5119264;27;20200;-44
2021/06/14 06:50:38;;;;;;;6.70;2.70;;;17.40;99.90;;;;;;5113919;27;20224;-44
2021/06/14 06:53:05;;;;;;;6.47;2.43;;;17.50;99.90;;;;;;5094291;27;20212;-50
2021/06/14 06:55:33;;;;;;;3.77;2.30;;;17.60;99.90;;;;;;5099655;27;20182;-45
2021/06/14 06:58:01;;;;;;;5.40;2.57;;;;;;;;;;5109183;27;20196;-44
2021/06/14 07:00:29;;;;;;;4.73;2.53;;;;;;;;;;5104806;27;20918;-44
2021/06/14 07:02:56;;;;;;;6.80;2.90;;;;;;;;;;5111849;27;20193;-45
2021/06/14 07:05:23;;;;;;;6.27;2.70;;;;;;;;;;5106755;27;20200;-44
2021/06/14 07:07:50;;;;;;;4.80;2.70;;;;;;;;;;5109206;27;20193;-47
2021/06/14 07:10:18;;;;;;;5.47;2.67;;;;;;;;;;5093685;27;20231;-46
2021/06/14 07:12:45;;;;;;;5.43;2.33;;;18.20;99.90;;;;;;5102480;27;20245;-47
2021/06/14 07:15:12;;;;;;;5.77;3.93;;;18.40;99.90;;;;;;5131860;27;20185;-45
2021/06/14 07:17:42;;;;;;;6.30;4.37;;;18.40;99.90;;;;;;5120815;27;20211;-44
2021/06/14 07:20:10;;;;;;;10.10;2.77;;;18.50;99.90;;;;;;5118530;27;20257;-46
2021/06/14 07:22:40;;;;;;;8.43;2.97;;;18.70;99.90;;;;;;5127402;27;20757;-44
2021/06/14 07:25:08;;;;;;;7.53;2.77;;;18.70;99.90;;;;;;5106544;27;20212;-44
2021/06/14 07:27:35;;;;;;;5.70;3.17;;;18.70;99.90;;;;;;5111890;27;20205;-46
2021/06/14 07:30:05;;;;;;;5.77;2.70;;;18.90;99.90;;;;;;5121667;27;20228;-45
2021/06/14 07:32:32;;;;;;;9.20;3.30;;;18.90;99.90;;;;;;5105042;27;20216;-44
2021/06/14 07:35:00;;;;;;;6.10;2.50;;;19.00;99.90;;;;;;5109830;27;20193;-49
2021/06/14 07:37:27;;;;;;;5.27;2.87;;;19.10;99.90;;;;;;5107784;27;20181;-48
2021/06/14 07:39:54;;;;;;;6.67;3.00;;;19.10;99.90;;;;;;5095817;27;20231;-45
2021/06/14 07:42:21;;;;;;;4.07;2.70;;;19.20;99.90;;;;;;5106864;27;20192;-46
2021/06/14 07:44:48;;;;;;;7.67;2.93;;;19.20;99.90;;;;;;5116678;27;20201;-46
2021/06/14 07:47:15;;;;;;;7.03;3.10;;;19.20;99.90;;;;;;5116513;27;20192;-44
2021/06/14 07:49:42;;;;;;;7.47;3.60;;;19.40;99.90;;;;;;5123220;27;20716;-46
2021/06/14 07:52:11;;;;;;;4.87;2.70;;;19.50;99.90;;;;;;5111405;27;20217;-46
2021/06/14 07:54:37;;;;;;;4.67;3.00;;;19.50;99.90;;;;;;5108907;27;20276;-45
2021/06/14 07:57:06;;;;;;;6.73;3.00;;;19.50;99.90;;;;;;5107988;27;20689;-44
2021/06/14 07:59:32;;;;;;;5.87;3.30;;;19.60;99.90;;;;;;5102314;27;20932;-45
2021/06/14 08:02:00;;;;;;;4.43;2.70;;;19.70;99.90;;;;;;5116152;27;20207;-44
2021/06/14 08:04:27;;;;;;;5.53;2.90;;;19.70;99.90;;;;;;5100340;27;20200;-45
2021/06/14 08:06:54;;;;;;;4.10;3.30;;;19.90;99.90;;;;;;5111931;27;20651;-45
2021/06/14 08:09:27;;;;;;;6.33;2.73;;;20.00;99.30;;;;;;5107570;27;20584;-46
2021/06/14 08:11:55;;;;;;;4.50;3.17;;;;;;;;;;5113999;27;20211;-44
2021/06/14 08:14:22;;;;;;;5.60;3.27;;;20.10;97.60;;;;;;5106872;27;20287;-45
2021/06/14 08:16:49;;;;;;;6.40;3.17;;;20.20;97.80;;;;;;5125692;27;20212;-45
2021/06/14 08:19:21;;;;;;;8.60;3.63;;;20.30;97.60;;;;;;5099739;27;20201;-45
2021/06/14 08:22:08;;;;;;;8.20;3.43;;;20.40;97.50;;;;;;5095806;27;20221;-48
2021/06/14 08:27:20;;;;;;;5.17;3.40;;;20.60;96.50;;;;;;5098446;27;20204;-46
2021/06/14 08:29:47;;;;;;;4.80;3.53;;;20.70;95.60;;;;;;5105835;27;20193;-47
2021/06/14 08:32:13;;;;;;;4.60;3.13;;;20.80;94.80;;;;;;5119233;27;20205;-46
2021/06/14 08:34:40;;;;;;;4.77;2.93;;;20.90;94.60;;;;;;5125956;27;20196;-51
2021/06/14 08:37:07;;;;;;;7.17;3.67;;;20.90;94.30;;;;;;5118160;27;20266;-45
2021/06/14 08:39:33;;;;;;;5.80;3.30;;;21.00;93.60;;;;;;5123138;27;20207;-47
2021/06/14 08:42:02;;;;;;;6.73;3.00;;;21.10;93.10;;;;;;5101498;27;20229;-45
2021/06/14 08:44:29;;;;;;;6.37;3.40;;;21.20;93.00;;;;;;5126989;27;20207;-48
2021/06/14 08:46:57;;;;;;;8.17;3.27;;;21.20;92.80;;;;;;5115702;27;20202;-44
2021/06/14 08:49:26;;;;;;;7.07;3.80;;;21.30;92.80;;;;;;5117514;27;20212;-53
2021/06/14 08:51:53;;;;;;;5.30;3.10;;;21.40;92.10;;;;;;5121755;27;20210;-59
2021/06/14 08:54:19;;;;;;;5.47;3.13;;;21.40;91.80;;;;;;5115909;27;20199;-51
2021/06/14 08:56:46;;;;;;;3.30;2.77;;;21.60;90.40;;;;;;5098651;27;20243;-55
2021/06/14 08:59:14;;;;;;;4.23;2.73;;;21.60;90.10;;;;;;5106374;27;20196;-50
2021/06/14 09:01:41;;;;;;;8.83;3.40;;;21.60;89.70;;;;;;5112025;27;20732;-67
2021/06/14 09:04:07;;;;;;;3.77;3.30;;;21.60;88.60;;;;;;5105495;27;20288;-46
2021/06/14 09:06:34;;;;;;;4.30;3.10;;;21.60;89.00;;;;;;5123794;27;20677;-45
2021/06/14 09:09:04;;;;;;;8.43;3.50;;;21.70;88.80;;;;;;5114076;27;20184;-46
2021/06/14 09:11:33;;;;;;;5.70;3.70;;;21.90;87.90;;;;;;5118783;27;20363;-46
2021/06/14 09:14:00;;;;;;;5.87;3.77;;;22.00;86.20;;;;;;5101823;27;20300;-47
2021/06/14 09:16:32;;;;;;;5.87;2.90;;;22.00;84.90;;;;;;5114956;27;20209;-46
2021/06/14 09:18:59;;;;;;;4.80;3.27;;;21.90;83.30;;;;;;5113132;27;20742;-46
2021/06/14 09:21:27;;;;;;;7.13;3.00;;;22.00;85.70;;;;;;5115506;27;20260;-45
2021/06/14 09:23:56;;;;;;;4.57;2.90;;;22.10;85.50;;;;;;5113260;27;20195;-51
2021/06/14 09:26:42;;;;;;;7.07;3.20;;;22.20;84.30;;;;;;5112151;27;20377;-55
2021/06/14 09:29:10;;;;;;;5.83;3.43;;;22.30;83.80;;;;;;5102296;27;20229;-51
2021/06/14 09:31:41;;;;;;;5.63;3.43;;;22.30;83.50;;;;;;5100360;27;20213;-44
2021/06/14 09:34:08;;;;;;;7.87;3.00;;;22.30;83.10;;;;;;5104880;27;20197;-47
2021/06/14 09:36:35;;;;;;;6.37;2.90;;;22.30;83.60;;;;;;5107587;27;20199;-47
2021/06/14 09:39:10;;;;;;;6.80;4.10;;;22.40;82.80;;;;;;5100952;27;20184;-46
2021/06/14 09:41:41;;;;;;;6.83;3.70;;;22.60;82.90;;;;;;5106388;27;20252;-45
2021/06/14 09:44:09;;;;;;;5.17;3.53;;;22.60;82.30;;;;;;5097371;27;20201;-44
2021/06/14 09:46:36;;;;;;;6.13;3.33;;;22.60;83.40;;;;;;5109673;27;20219;-45
2021/06/14 09:49:05;;;;;;;9.63;3.50;;;22.60;81.90;;;;;;5099609;27;20220;-45
2021/06/14 09:51:34;;;;;;;5.53;3.33;;;22.60;83.10;;;;;;5101561;27;20585;-48
2021/06/14 09:54:02;;;;;;;5.37;3.23;;;22.70;85.60;;;;;;5105799;27;20228;-45
2021/06/14 09:56:32;;;;;;;6.70;3.08;;;22.80;85.60;;;;;;5104747;27;20212;-46
2021/06/14 09:59:00;;;;;;;6.23;3.83;;;22.80;85.90;;;;;;5097598;27;20292;-45
2021/06/14 10:01:29;;;;;;;6.10;3.77;;;22.70;86.10;;;;;;5104417;27;20213;-45
2021/06/14 10:03:58;;;;;;;6.50;2.73;;;22.70;85.50;;;;;;5106542;27;20204;-46
2021/06/14 10:06:31;;;;;;;4.50;2.80;;;22.80;86.10;;;;;;5103920;27;20204;-46
2021/06/14 10:08:59;;;;;;;5.75;3.35;;;22.80;84.90;;;;;;5106024;27;20206;-47
2021/06/14 10:11:33;;;;;;;4.95;3.17;;;22.90;85.00;;;;;;5111237;27;20224;-47
2021/06/14 10:14:07;;;;;;;9.10;3.22;;;23.20;92.60;;;;;;5106378;27;20206;-47
2021/06/14 10:16:36;;;;;;;4.70;3.30;;;23.00;90.00;;;;;;5099879;27;20207;-45
2021/06/14 10:19:04;;;;;;;9.83;2.93;;;23.00;89.50;;;;;;5099513;27;20194;-45
2021/06/14 10:21:34;;;;;;;4.90;3.35;;;23.20;88.60;;;;;;5102122;27;20232;-45
2021/06/14 10:24:05;;;;;;;6.35;3.10;;;;;;;;;;5109020;27;20826;-44
2021/06/14 10:26:34;;;;;;;5.70;2.65;;;;;;;;;;5119548;27;20188;-43
2021/06/14 10:29:01;;;;;;;5.35;2.75;;;;;;;;;;5111511;27;20181;-45
2021/06/14 10:31:28;;;;;;;3.80;2.47;;;;;;;;;;5103240;27;20228;-47
2021/06/14 10:33:56;;;;;;;5.18;3.03;;;;;;;;;;5103392;27;20216;-45
2021/06/14 10:36:29;;;;;;;6.07;2.90;;;;;;;;;;5116916;27;20211;-44
2021/06/14 10:38:59;;;;;;;6.55;2.65;;;23.60;99.90;;;;;;5103692;27;20204;-43
2021/06/14 10:41:26;;;;;;;4.97;2.63;;;23.70;76.60;;;;;;5113878;27;20612;-48
2021/06/14 10:43:54;;;;;;;3.47;2.42;;;23.80;74.30;;;;;;5115189;27;20689;-44
2021/06/14 10:46:23;;;;;;;4.40;2.50;;;23.80;72.40;;;;;;5101017;27;20204;-46
2021/06/14 10:48:55;;;;;;;4.60;3.00;;;23.70;73.20;;;;;;5108612;27;20206;-44
2021/06/14 10:51:22;;;;;;;4.88;3.13;;;23.80;73.60;;;;;;5119721;27;20226;-45
2021/06/14 10:53:51;;;;;;;3.13;2.80;;;23.80;73.30;;;;;;5103150;27;20205;-45
2021/06/14 10:56:20;;;;;;;8.57;3.42;;;23.90;73.70;;;;;;5117932;27;20220;-49
2021/06/14 10:58:58;;;;;;;5.00;2.88;;;24.00;71.90;;;;;;5108071;27;20197;-45
2021/06/14 11:01:32;;;;;;;3.58;2.78;;;23.90;71.60;;;;;;5102359;27;20213;-45
2021/06/14 11:04:00;;;;;;;5.45;3.35;;;23.90;73.00;;;;;;5100599;27;20200;-45
2021/06/14 11:06:28;;;;;;;5.00;2.72;;;24.00;73.30;;;;;;5109669;27;20193;-46
2021/06/14 11:09:06;;;;;;;4.80;2.60;;;24.00;71.40;;;;;;5106497;27;20566;-65
2021/06/14 11:11:46;;;;;;;4.97;2.85;;;24.20;71.50;;;;;;5117286;27;20227;-64
2021/06/14 11:14:13;;;;;;;7.90;3.13;;;24.30;69.70;;;;;;5113251;27;20196;-64
2021/06/14 11:16:40;;;;;;;4.85;2.85;;;24.40;70.80;;;;;;5111923;27;20669;-61
2021/06/14 11:19:08;;;;;;;3.85;2.40;;;24.30;70.80;;;;;;5097726;27;20312;-66
2021/06/14 11:21:36;;;;;;;4.40;3.15;;;24.40;70.60;;;;;;5110014;27;20636;-62
2021/06/14 11:24:12;;;;;;;5.25;2.70;;;24.40;70.30;;;;;;5106808;27;20193;-62
2021/06/14 11:26:39;;;;;;;6.35;3.40;;;24.50;69.70;;;;;;5115490;27;20292;-63
2021/06/14 11:29:16;;;;;;;4.72;2.70;;;24.50;70.10;;;;;;5105708;27;20196;-64
2021/06/14 11:31:55;;;;;;;6.68;3.17;;;24.50;68.00;;;;;;5107565;27;20589;-65
2021/06/14 11:34:22;;;;;;;4.25;2.72;;;24.50;68.50;;;;;;5107202;27;20203;-64
2021/06/14 11:36:57;;;;;;;5.07;2.97;;;24.60;68.80;;;;;;5101407;27;20756;-67
2021/06/14 11:39:25;;;;;;;4.53;2.83;;;24.70;68.30;;;;;;5106177;27;20198;-65
2021/06/14 11:41:53;;;;;;;4.45;2.63;;;24.80;68.60;;;;;;5106616;27;20686;-60
2021/06/14 11:44:29;;;;;;;3.35;2.80;;;24.80;67.40;;;;;;5115991;27;20864;-58
2021/06/14 11:46:58;;;;;;;4.45;2.60;;;24.80;66.70;;;;;;5116502;27;20200;-45
2021/06/14 11:49:32;;;;;;;6.97;2.90;;;24.80;66.10;;;;;;5103436;27;20862;-49
2021/06/14 11:51:59;;;;;;;3.13;2.47;;;24.80;66.90;;;;;;5114587;27;20215;-49
2021/06/14 11:54:27;;;;;;;3.92;2.75;;;24.90;68.50;;;;;;5110270;27;20205;-45
2021/06/14 11:56:59;;;;;;;6.82;2.85;;;25.10;67.90;;;;;;5113948;27;20193;-47
2021/06/14 11:59:35;;;;;;;5.93;2.60;;;25.20;67.20;;;;;;5103307;27;20321;-45
2021/06/14 12:02:04;;;;;;;6.85;3.38;;;25.30;64.80;;;;;;5122178;27;20195;-50
2021/06/14 12:04:31;;;;;;;3.58;2.65;;;25.20;65.70;;;;;;5109003;27;20845;-46
2021/06/14 12:07:03;;;;;;;2.45;2.25;;;25.20;66.10;;;;;;5111920;27;20595;-49
2021/06/14 12:09:30;;;;;;;2.90;2.65;;;25.40;68.70;;;;;;5100210;27;20280;-47
2021/06/14 12:12:02;;;;;;;5.03;2.90;;;25.40;66.80;;;;;;5107929;27;20212;-46
2021/06/14 12:14:30;;;;;;;6.28;2.58;;;25.30;64.80;;;;;;5113938;27;20200;-46
2021/06/14 12:17:00;;;;;;;3.67;2.63;;;25.20;65.30;;;;;;5114323;27;20208;-47
2021/06/14 12:19:29;;;;;;;4.30;2.63;;;25.40;66.40;;;;;;5097223;27;20915;-47
2021/06/14 12:21:58;;;;;;;3.80;2.45;;;25.50;65.50;;;;;;5108221;27;20233;-47
2021/06/14 12:24:25;;;;;;;5.70;3.20;;;25.70;87.30;;;;;;5117011;27;20288;-45
2021/06/14 12:26:59;;;;;;;3.70;2.78;;;25.70;87.70;;;;;;5119027;27;20200;-48
2021/06/14 12:29:26;;;;;;;5.65;2.70;;;25.80;62.30;;;;;;5119419;27;20216;-46
2021/06/14 12:32:02;;;;;;;7.07;2.97;;;25.90;64.60;;;;;;5136970;27;20224;-45
2021/06/14 12:34:29;;;;;;;4.03;2.53;;;26.10;62.90;;;;;;5103119;28;20196;-47
2021/06/14 12:37:05;;;;;;;3.08;2.50;;;26.20;62.50;;;;;;5117895;28;20197;-47
2021/06/14 12:39:32;;;;;;;3.33;2.60;;;26.20;62.90;;;;;;5108224;28;20279;-52
2021/06/14 12:42:00;;;;;;;5.47;2.85;;;26.40;61.80;;;;;;5104182;27;20228;-51
2021/06/14 12:44:27;;;;;;;3.50;2.55;;;26.40;61.20;;;;;;5110690;28;20192;-46
2021/06/14 12:46:53;;;;;;;6.85;2.08;;;26.50;60.80;;;;;;5124026;28;20189;-49
2021/06/14 12:49:28;;;;;;;2.67;2.40;;;26.60;59.60;;;;;;5093183;27;20677;-47
2021/06/14 12:51:55;;;;;;;4.00;2.40;;;26.70;59.90;;;;;;5124798;27;20227;-49
2021/06/14 12:54:22;;;;;;;4.28;2.47;;;26.90;59.00;;;;;;5116750;27;20216;-46
2021/06/14 12:56:54;;;;;;;4.28;2.55;;;27.20;58.90;;;;;;5115547;27;20193;-47
2021/06/14 12:59:21;;;;;;;4.10;2.40;;;27.30;57.70;;;;;;5111837;27;20740;-47
2021/06/14 13:01:48;;;;;;;4.32;2.55;;;27.40;59.20;;;;;;5110580;28;20218;-48